Nearby METAR Reports

 

KMGY - Dayton, Ohio, USA
Distance from station: N 3mi, 5km
Updated: 04/22/2019 11:53am
Clear
Clear
 Wind from SE
Wind: SE 7 mph , 11 km/h
Temperature: 66°F , 19°C
Dew Point: 43°F , 6°C
Humidity: 43%
Barometer: 30.22 inHg , 1023.4 hPa
Clouds: Clear
Visibility: 10 miles , 16 km
2019/04/22 15:53 KMGY 221553Z AUTO 13006KT 10SM CLR 19/06 A3022 RMK AO2 SLP231 T01890056
KMWO - Middletown/Hook, Ohio, USA
Distance from station: W 9mi, 14km
Updated: 04/22/2019 12:55pm
Clear
Clear
 Wind from ESE
Wind: ESE 7 mph , 11 km/h
Temperature: 68°F , 20°C
Dew Point: 46°F , 8°C
Humidity: 46%
Barometer: 30.21 inHg , 1023 hPa
Clouds: Clear
Visibility: 10 miles , 16 km
2019/04/22 16:55 KMWO 221655Z AUTO 12006KT 10SM CLR 20/08 A3021 RMK AO2 T02040083
 
KHAO - Hamilton, Ohio, USA
Distance from station: SW 20mi, 32km
Updated: 04/22/2019 12:53pm
Clear
Clear
 Wind from E
Wind: E 3 mph , 6 km/h
Temperature: 68°F , 20°C
Dew Point: 46°F , 8°C
Humidity: 46%
Barometer: 30.21 inHg , 1023 hPa
Clouds: Clear
Visibility: 10 miles , 16 km
2019/04/22 16:53 KHAO 221653Z AUTO 10003KT 10SM CLR 20/08 A3021 RMK AO2 SLP229 T02000078
KFFO - Wright Paterson, Ohio, USA
Distance from station: NNE 21mi, 34km
Updated: 04/22/2019 12:56pm
Clear
Clear
 Wind from SSE
Wind: SSE 6 mph , 9 km/h
Temperature: 68°F , 20°C
Dew Point: 43°F , 6°C
Humidity: 40%
Barometer: 30.20 inHg , 1022.7 hPa
Clouds: Clear
Visibility: 10 miles , 16 km
2019/04/22 16:56 KFFO 221656Z AUTO 16005KT 10SM CLR 20/06 A3020 RMK AO2 SLP229 T01990059
 
KDAY - Dayton, Ohio, USA
Distance from station: N 24mi, 39km
Updated: 04/22/2019 12:56pm
Partly cloudy
Partly cloudy
 Wind from ESE
Wind: ESE 10 mph , 17 km/h
Temperature: 70°F , 21°C
Dew Point: 45°F , 7°C
Humidity: 40%
Barometer: 30.21 inHg , 1023 hPa
Clouds: Partly cloudy
Visibility: 10 miles , 16 km
Cloud details: Few Clouds 8000 ft
Partly cloudy 25000 ft
2019/04/22 16:56 KDAY 221656Z 11009KT 10SM FEW080 SCT250 21/07 A3021 RMK AO2 SLP226 T02060067
KILN - Wilmington, Ohio, USA
Distance from station: ESE 25mi, 39km
Updated: 04/22/2019 12:54pm
Clear
Clear
 Wind from SSE
Wind: SSE 6 mph , 9 km/h
Temperature: 64°F , 18°C
Dew Point: 45°F , 7°C
Humidity: 49%
Barometer: 30.21 inHg , 1023 hPa
Clouds: Clear
Visibility: 10 miles , 16 km
2019/04/22 16:54 KILN 221654Z AUTO 16005KT 10SM CLR 18/07 A3021 RMK AO2 SLP236 T01830067
 
KSGH - Springfield Muni, Ohio, USA
Distance from station: NE 29mi, 46km
Updated: 04/22/2019 12:56pm
Clear
Clear
 Wind from SSE
Wind: SSE 8 mph , 13 km/h
Temperature: 64°F , 18°C
Dew Point: 45°F , 7°C
Humidity: 49%
Barometer: 30.22 inHg , 1023.4 hPa
Clouds: Clear
Visibility: 10 miles , 16 km
2019/04/22 16:56 KSGH 221656Z AUTO 16007KT 10SM CLR 18/07 A3022 RMK AO2 SLP234 P0001 T01830072
KI69 - Batavia, Ohio, USA
Distance from station: S 32mi, 52km
Updated: 04/22/2019 12:56pm
Clear
Clear
 Wind from SE
Wind: SE 6 mph , 9 km/h
Temperature: 68°F , 20°C
Dew Point: 46°F , 8°C
Humidity: 46%
Barometer: 30.22 inHg , 1023.4 hPa
Clouds: Clear
Visibility: 10 miles , 16 km
2019/04/22 16:56 KI69 221656Z AUTO 13005KT 10SM CLR 20/08 A3022 RMK AO2 T02030080
 
KLUK - Cincinnat/Lunken, Ohio, USA
Distance from station: SSW 33mi, 53km
Updated: 04/22/2019 12:53pm
Clear
Clear
 Wind from SSW
Wind: SSW 6 mph , 9 km/h
Temperature: 70°F , 21°C
Dew Point: 46°F , 8°C
Humidity: 43%
Barometer: 30.21 inHg , 1023 hPa
Clouds: Clear
Visibility: 10 miles , 16 km
2019/04/22 16:53 KLUK 221653Z 21005KT 10SM CLR 21/08 A3021 RMK AO2 SLP228 T02060083
KCVG - Covington, Kentucky, USA
Distance from station: SSW 42mi, 67km
Updated: 04/22/2019 12:52pm
Few Clouds
Few Clouds
 Wind from varies
Wind: varies 3 mph , 6 km/h
Temperature: 70°F , 21°C
Dew Point: 46°F , 8°C
Humidity: 43%
Barometer: 30.20 inHg , 1022.7 hPa
Clouds: Few Clouds
Visibility: 10 miles , 16 km
Cloud details: Few Clouds 30000 ft
2019/04/22 16:52 KCVG 221652Z VRB03KT 10SM FEW300 21/08 A3020 RMK AO2 SLP223 T02060083
 
KVES - Versailles, Ohio, USA
Distance from station: NNW 47mi, 76km
Updated: 04/22/2019 12:30pm
Clear
Clear
 Wind from SSE
Wind: SSE 13 mph , 20 km/h
Temperature: 64°F , 18°C
Dew Point: 46°F , 8°C
Humidity: 52%
Barometer: 30.19 inHg , 1022.4 hPa
Clouds: Clear
Visibility: 10 miles , 16 km
2019/04/22 16:30 KVES 221630Z AUTO 15011KT 10SM CLR 18/08 A3019 RMK AO2